• Join FlightAware (Why Join?)
  • Login
  • US Flag 
06:29AM EDT


 

Airport Tracker/Info


-or-


 

Live Flight TrackerFlight Track Log ✈ DAL6035 ✈ 29-Apr-2013 ✈ KLGA - KMHT

Flight Track Log - Related Links

Times and Time Zones

All times are in EDT time to prevent confusion due to time zone crossing. See the DAL6035 flight status page for this flight to view local times or setup timezone preferences in your user account.

Time Position Orientation Groundspeed Altitude Reporting Facility
EDT Latitude Longitude Course Direction KTS MPH feet Rate Location/Type
11:49AM 40.7667 -73.8500 33° Northeast 153 176 800  Level New York TRACON
11:50AM 40.7333 -73.8167 143° Southeast 184 212 3,300 2,400 Climbing New York TRACON
11:51AM 40.7667 -73.7667 49° Northeast 233 268 5,600 2,220 Climbing New York TRACON
11:52AM 40.9885 -73.6948 37° Northeast  Level FlightAware Approximate
11:53AM 41.0615 -73.6347 28° Northeast  Level FlightAware Approximate
11:54AM 41.1371 -73.5801 33° Northeast  Level FlightAware Approximate
11:54AM 40.9056 -73.6731 27° Northeast 265 305 10,500  Level Boston Center
11:55AM 41.2090 -73.5172 33° Northeast  Level FlightAware Approximate
11:55AM 40.9833 -73.6278 24° Northeast 279 321 11,900  Level Boston Center
11:56AM 41.0714 -73.5717 26° Northeast 306 352 14,100 1,740 Climbing Boston Center
11:57AM 41.1594 -73.5181 25° Northeast 327 376 15,400 1,380 Climbing Boston Center
11:58AM 41.2475 -73.4589 27° Northeast 344 396 16,900 780 Climbing Boston Center
11:59AM 41.3439 -73.3994 25° Northeast 362 417 17,000  Climbing Boston Center
12:00PM 41.4506 -73.3375 24° Northeast 397 457 17,000  Level Boston Center
12:01PM 41.5283 -73.2497 40° Northeast 405 466 17,000  Level Boston Center
12:02PM 41.6167 -73.1369 44° Northeast 394 453 17,000  Level Boston Center
12:03PM 41.6964 -73.0683 33° Northeast 384 442 17,000  Level Boston Center
12:04PM 41.7989 -72.9969 27° Northeast 372 428 17,000  Level Boston Center
12:05PM 41.8992 -72.9253 28° Northeast 367 422 17,000  Level Boston Center
12:06PM 41.9892 -72.8647 27° Northeast 367 422 17,000  Level Boston Center
12:07PM 42.0831 -72.7981 28° Northeast 367 422 17,000  Level Boston Center
12:08PM 42.1875 -72.7231 28° Northeast 379 436 17,000 -300 Level Boston Center
12:09PM 42.2731 -72.6308 39° Northeast 384 442 16,500 -840 Descending Boston Center
12:10PM 42.3461 -72.5411 42° Northeast 389 448 15,400 -1,140 Descending Boston Center
12:11PM 42.4275 -72.4372 43° Northeast 389 448 14,300 -1,200 Descending Boston Center
12:12PM 42.5044 -72.3386 43° Northeast 389 448 13,100 -1,620 Descending Boston Center
12:13PM 42.5856 -72.2314 44° Northeast 375 432 11,100 -1,500 Descending Boston Center
12:14PM 42.6481 -72.1494 44° Northeast 353 406 10,100 -1,140 Descending Boston Center
12:15PM 42.7103 -72.0672 44° Northeast 295 339 8,900 -1,200 Descending Boston Center
12:16PM 42.7622 -72.0017 43° Northeast 279 321 7,800 -1,260 Descending Boston Center
12:17PM 42.8244 -71.9278 41° Northeast 274 315 6,400 -1,380 Descending Boston Center
12:18PM 42.8719 -71.8650 44° Northeast 263 303 5,100 -1,080 Descending Boston Center
12:19PM 42.9300 -71.7908 43° Northeast 263 303 4,100 -540 Descending Boston Center
12:20PM 42.9900 -71.7164 42° Northeast 253 291 4,000 -600 Descending Boston Center
12:21PM 43.0397 -71.6533 43° Northeast 248 285 3,000 -780 Descending Boston Center
12:22PM 43.0600 -71.5761 70° East 212 244 2,500 -420 Descending Boston Center
12:23PM 43.0489 -71.5083 103° East 190 219 2,200 -420 Descending Boston Center
12:24PM 43.0050 -71.4778 153° Southeast 170 196 1,700 -540 Descending Boston Center